This is the latest recevied weather packets stored in our database for station/object K7SKM. If no packets are shown the sender has not sent any weather packets the latest 10 day(s).
| Time | Temp. | Humidity | Pressure | Rain* | Wind** | Luminosity | Snow |
|---|---|---|---|---|---|---|---|
| 1777567483 | 16.11° C | 65% | 1025.2 hPa | 0 mm | - | 253 W/m² | - |
| 1777567181 | 15.56° C | 69% | 1025.1 hPa | 0 mm | - | 251 W/m² | - |
| 1777566879 | 15° C | 70% | 1025.5 hPa | 0 mm | - | 235 W/m² | - |
| 1777566576 | 14.44° C | 71% | 1025.4 hPa | 0 mm | - | 232 W/m² | - |
| 1777566273 | 14.44° C | 71% | 1025.6 hPa | 0 mm | - | 227 W/m² | - |
| 1777565971 | 15.56° C | 68% | 1025.3 hPa | 0 mm | - | 176 W/m² | - |
| 1777565666 | 15° C | 71% | 1025.6 hPa | 0 mm | - | 204 W/m² | - |
| 1777565363 | 14.44° C | 73% | 1025.7 hPa | 0 mm | - | 188 W/m² | - |
| 1777565059 | 13.33° C | 76% | 1025.8 hPa | 0 mm | - | 196 W/m² | - |
| 1777564755 | 13.33° C | 77% | 1025.6 hPa | 0 mm | - | 194 W/m² | - |
| 1777564450 | 12.78° C | 78% | 1025.8 hPa | 0 mm | - | 198 W/m² | - |
| 1777564146 | 12.22° C | 79% | 1025.9 hPa | 0 mm | - | 186 W/m² | - |
| 1777563842 | 12.22° C | 79% | 1025.7 hPa | 0 mm | - | 77 W/m² | - |
| 1777563539 | 11.67° C | 82% | 1025.7 hPa | 0 mm | - | 86 W/m² | - |
| 1777563238 | 11.11° C | 83% | 1025.9 hPa | 0 mm | - | 66 W/m² | - |
| 1777562935 | 11.11° C | 83% | 1025.9 hPa | 0 mm | - | 61 W/m² | - |
| 1777562630 | 11.11° C | 84% | 1025.9 hPa | 0 mm | - | 60 W/m² | - |
| 1777562330 | 10.56° C | 84% | 1025.5 hPa | 0 mm | - | 59 W/m² | - |
| 1777562026 | 10.56° C | 85% | 1026 hPa | 0 mm | - | 58 W/m² | - |
| 1777561724 | 10° C | 85% | 1025.9 hPa | 0 mm | - | 57 W/m² | - |
| 1777561419 | 10° C | 85% | 1026 hPa | 0 mm | - | 55 W/m² | - |
| 1777561114 | 10° C | 85% | 1025.9 hPa | 0 mm | - | 58 W/m² | - |
| 1777560810 | 10° C | 84% | 1026.1 hPa | 0 mm | - | 53 W/m² | - |
| 1777560508 | 10° C | 85% | 1026.2 hPa | 0 mm | - | 57 W/m² | - |
| 1777560205 | 9.44° C | 85% | 1026.2 hPa | 0 mm | - | 60 W/m² | - |
* Rain latest hour (hover to see other rain measurements)
** Current wind speed in m/s (hover to see current wind gust speed)